createdAt,value
2017-11-25T00:00:36.301Z,14.70
2017-11-25T00:03:05.368Z,14.20
2017-11-25T00:05:33.660Z,14.30
2017-11-25T00:08:01.484Z,13.17
2017-11-25T00:10:28.712Z,12.70
2017-11-25T00:12:57.117Z,13.53
2017-11-25T00:15:24.575Z,13.27
2017-11-25T00:17:52.807Z,12.30
2017-11-25T00:20:20.837Z,11.93
2017-11-25T00:22:49.170Z,12.57
2017-11-25T00:25:18.325Z,11.60
2017-11-25T00:27:46.841Z,11.73
2017-11-25T00:30:15.106Z,10.03
2017-11-25T00:32:42.330Z,9.90
2017-11-25T00:35:10.325Z,9.37
2017-11-25T00:37:38.257Z,8.27
2017-11-25T00:40:05.170Z,7.23
2017-11-25T00:42:33.508Z,8.30
2017-11-25T00:45:02.496Z,7.60
2017-11-25T00:47:30.395Z,8.23
2017-11-25T00:49:57.505Z,8.13
2017-11-25T00:52:25.916Z,7.93
2017-11-25T00:54:55.012Z,8.50
2017-11-25T00:57:24.392Z,8.47
2017-11-25T00:59:52.931Z,7.40
2017-11-25T01:02:20.976Z,7.20
2017-11-25T01:04:48.421Z,7.37
2017-11-25T01:07:18.041Z,7.10
2017-11-25T01:09:45.543Z,7.63
2017-11-25T01:12:14.625Z,6.80
2017-11-25T01:14:42.492Z,6.53
2017-11-25T01:17:11.059Z,6.53
2017-11-25T01:19:38.031Z,6.50
2017-11-25T01:22:05.746Z,6.83
2017-11-25T01:24:32.790Z,6.37
2017-11-25T01:26:59.787Z,5.97
2017-11-25T01:29:28.381Z,6.63
2017-11-25T01:31:57.562Z,5.37
2017-11-25T01:34:25.814Z,4.97
2017-11-25T01:36:52.900Z,4.90
2017-11-25T01:39:20.351Z,4.70
2017-11-25T01:41:48.317Z,4.90
2017-11-25T01:44:15.676Z,4.70
2017-11-25T01:46:44.021Z,4.80
2017-11-25T01:49:11.989Z,4.27
2017-11-25T01:51:39.113Z,3.90
2017-11-25T01:54:06.482Z,4.10
2017-11-25T01:56:34.196Z,3.90
2017-11-25T01:59:02.702Z,4.10
2017-11-25T02:01:31.129Z,4.13
2017-11-25T02:03:58.772Z,3.50
2017-11-25T02:06:25.922Z,3.87
2017-11-25T02:08:53.653Z,4.70
2017-11-25T02:11:21.892Z,4.47
2017-11-25T02:13:49.172Z,4.00
2017-11-25T02:16:18.241Z,3.97
2017-11-25T02:18:46.976Z,3.70
2017-11-25T02:21:15.720Z,4.70
2017-11-25T02:23:43.828Z,5.33
2017-11-25T02:26:13.120Z,4.47
2017-11-25T02:28:41.193Z,3.67
2017-11-25T02:31:09.128Z,4.40
2017-11-25T02:33:36.518Z,4.00
2017-11-25T02:36:05.573Z,4.07
2017-11-25T02:38:32.695Z,3.80
2017-11-25T02:41:01.001Z,3.60
2017-11-25T02:43:28.777Z,3.40
2017-11-25T02:45:55.942Z,3.20
2017-11-25T02:48:25.432Z,2.80
2017-11-25T02:50:54.249Z,2.60
2017-11-25T02:53:21.815Z,3.07
2017-11-25T02:55:50.413Z,2.47
2017-11-25T02:58:17.705Z,2.27
2017-11-25T03:00:44.844Z,2.47
2017-11-25T03:03:12.705Z,2.40
2017-11-25T03:05:40.610Z,1.97
2017-11-25T03:08:08.680Z,2.03
2017-11-25T03:10:36.229Z,2.07
2017-11-25T03:13:03.693Z,1.80
2017-11-25T03:15:30.757Z,1.80
2017-11-25T03:17:58.841Z,1.87
2017-11-25T03:20:26.382Z,2.20
2017-11-25T03:22:54.180Z,2.27
2017-11-25T03:25:23.137Z,2.30
2017-11-25T03:27:50.402Z,3.70
2017-11-25T03:30:18.135Z,3.90
2017-11-25T03:32:47.800Z,4.00
2017-11-25T03:35:15.277Z,4.60
2017-11-25T03:37:44.333Z,5.03
2017-11-25T03:40:11.716Z,4.00
2017-11-25T03:42:40.073Z,4.07
2017-11-25T03:45:07.452Z,3.10
2017-11-25T03:47:35.503Z,3.20
2017-11-25T03:50:02.862Z,3.97
2017-11-25T03:52:30.393Z,3.60
2017-11-25T03:54:58.360Z,3.63
2017-11-25T03:57:25.774Z,3.40
2017-11-25T03:59:52.982Z,4.00
2017-11-25T04:02:20.959Z,4.57
2017-11-25T04:04:48.420Z,4.80
2017-11-25T04:07:15.614Z,5.00
2017-11-25T04:09:43.703Z,4.90
2017-11-25T04:12:11.504Z,4.17
2017-11-25T04:14:39.269Z,5.40
2017-11-25T04:17:06.833Z,5.07
2017-11-25T04:19:34.369Z,5.00
2017-11-25T04:22:02.515Z,4.77
2017-11-25T04:24:29.816Z,4.87
2017-11-25T04:26:57.420Z,5.10
2017-11-25T04:29:25.761Z,4.33
2017-11-25T04:31:53.179Z,4.20
2017-11-25T04:34:20.468Z,4.90
2017-11-25T04:36:48.833Z,4.43
2017-11-25T04:39:16.417Z,4.73
2017-11-25T04:41:43.764Z,4.83
2017-11-25T04:44:11.270Z,4.33
2017-11-25T04:46:39.046Z,3.90
2017-11-25T04:49:08.201Z,4.10
2017-11-25T04:51:37.216Z,3.90
2017-11-25T04:54:04.169Z,3.50
2017-11-25T04:56:32.780Z,3.10
2017-11-25T04:59:00.480Z,3.43
2017-11-25T05:01:27.859Z,3.37
2017-11-25T05:03:54.931Z,3.40
2017-11-25T05:06:23.374Z,3.77
2017-11-25T05:08:50.722Z,3.37
2017-11-25T05:11:18.972Z,3.60
2017-11-25T05:13:46.997Z,3.50
2017-11-25T05:16:14.153Z,3.97
2017-11-25T05:18:41.247Z,3.20
2017-11-25T05:21:10.274Z,3.53
2017-11-25T05:23:37.905Z,3.70
2017-11-25T05:26:07.561Z,2.63
2017-11-25T05:28:50.446Z,2.10
2017-11-25T05:31:19.280Z,2.87
2017-11-25T05:33:46.234Z,2.40
2017-11-25T05:36:15.921Z,2.23
2017-11-25T05:38:44.190Z,1.90
2017-11-25T05:41:12.457Z,2.20
2017-11-25T05:43:41.054Z,2.37
2017-11-25T05:46:10.001Z,2.60
2017-11-25T05:48:38.624Z,2.77
2017-11-25T05:51:05.594Z,2.57
2017-11-25T05:53:32.749Z,2.30
2017-11-25T05:56:01.418Z,3.07
2017-11-25T05:58:28.897Z,2.20
2017-11-25T06:00:56.973Z,2.40
2017-11-25T06:03:25.794Z,2.73
2017-11-25T06:05:54.040Z,2.33
2017-11-25T06:08:21.159Z,2.20
2017-11-25T06:10:49.377Z,2.43
2017-11-25T06:13:16.570Z,2.53
2017-11-25T06:15:43.791Z,1.63
2017-11-25T06:18:10.952Z,2.40
2017-11-25T06:20:38.152Z,2.23
2017-11-25T06:23:05.433Z,2.30
2017-11-25T06:25:33.804Z,2.50
2017-11-25T06:28:01.752Z,2.63
2017-11-25T06:30:29.519Z,2.37
2017-11-25T06:32:59.752Z,2.77
2017-11-25T06:35:27.616Z,2.30
2017-11-25T06:37:56.117Z,2.90
2017-11-25T06:40:25.373Z,2.93
2017-11-25T06:42:52.677Z,2.50
2017-11-25T06:45:21.732Z,3.13
2017-11-25T06:47:48.708Z,2.63
2017-11-25T06:50:16.204Z,3.03
2017-11-25T06:52:43.776Z,2.50
2017-11-25T06:55:10.923Z,2.53
2017-11-25T06:57:38.210Z,2.30
2017-11-25T07:00:05.339Z,2.87
2017-11-25T07:02:37.457Z,3.03
2017-11-25T07:05:05.404Z,3.17
2017-11-25T07:07:32.867Z,2.50
2017-11-25T07:10:06.953Z,4.23
2017-11-25T07:12:38.702Z,2.80
2017-11-25T07:15:06.861Z,2.70
2017-11-25T07:17:38.246Z,2.30
2017-11-25T07:20:18.762Z,2.37
2017-11-25T07:22:47.821Z,2.00
2017-11-25T07:25:15.549Z,2.37
2017-11-25T07:27:45.659Z,2.17
2017-11-25T07:30:28.579Z,2.10
2017-11-25T07:33:05.700Z,2.30
2017-11-25T07:35:45.713Z,1.47
2017-11-25T07:38:22.597Z,2.27
2017-11-25T07:41:04.222Z,2.63
2017-11-25T07:43:41.370Z,3.77
2017-11-25T07:46:22.739Z,1.57
2017-11-25T07:49:05.169Z,1.77
2017-11-25T07:51:47.570Z,1.60
2017-11-25T07:54:26.705Z,2.13
2017-11-25T07:57:07.135Z,1.60
2017-11-25T07:59:34.657Z,2.80
2017-11-25T08:02:03.057Z,3.57
2017-11-25T08:04:30.068Z,2.30
2017-11-25T08:06:58.683Z,1.90
2017-11-25T08:09:26.474Z,1.60
2017-11-25T08:11:53.995Z,1.47
2017-11-25T08:14:21.037Z,1.43
2017-11-25T08:16:48.332Z,1.73
2017-11-25T08:19:16.413Z,1.40
2017-11-25T08:21:44.494Z,2.00
2017-11-25T08:24:12.925Z,1.93
2017-11-25T08:26:42.030Z,1.60
2017-11-25T08:29:09.564Z,1.40
2017-11-25T08:31:37.524Z,1.43
2017-11-25T08:34:22.717Z,1.20
2017-11-25T08:36:51.941Z,1.30
2017-11-25T08:39:23.177Z,1.30
2017-11-25T08:41:53.420Z,1.10
2017-11-25T08:44:28.962Z,1.13
2017-11-25T08:47:04.845Z,1.30
2017-11-25T08:49:34.972Z,1.20
2017-11-25T08:52:02.744Z,1.17
2017-11-25T08:54:31.236Z,1.00
2017-11-25T08:57:11.935Z,1.17
2017-11-25T08:59:52.190Z,1.30
2017-11-25T09:02:21.021Z,1.20
2017-11-25T09:05:04.268Z,1.33
2017-11-25T09:07:33.626Z,1.70
2017-11-25T09:10:04.449Z,2.00
2017-11-25T09:12:48.370Z,1.23
2017-11-25T09:18:15.245Z,1.23
2017-11-25T09:20:56.366Z,1.40
2017-11-25T09:23:37.428Z,1.60
2017-11-25T09:29:06.920Z,1.70
2017-11-25T09:31:48.466Z,1.43
2017-11-25T09:34:32.164Z,2.37
2017-11-25T09:37:14.024Z,1.57
2017-11-25T09:39:59.741Z,1.63
2017-11-25T09:42:43.628Z,1.80
2017-11-25T09:45:19.624Z,1.70
2017-11-25T09:47:59.268Z,1.37
2017-11-25T09:50:41.219Z,1.80
2017-11-25T09:53:23.957Z,1.60
2017-11-25T09:56:05.994Z,2.10
2017-11-25T09:58:47.594Z,1.80
2017-11-25T10:01:32.574Z,2.07
2017-11-25T10:04:15.255Z,2.27
2017-11-25T10:06:55.525Z,2.17
2017-11-25T10:12:24.744Z,2.17
2017-11-25T10:17:55.221Z,2.03
2017-11-25T10:20:41.799Z,1.73
2017-11-25T10:26:24.235Z,1.87
2017-11-25T10:29:09.417Z,2.20
2017-11-25T10:34:44.898Z,1.70
2017-11-25T10:43:14.522Z,1.80
2017-11-25T10:46:00.918Z,1.73
2017-11-25T10:48:48.705Z,1.80
2017-11-25T10:51:31.373Z,1.70
2017-11-25T10:57:04.408Z,2.00
2017-11-25T10:59:52.531Z,2.47
2017-11-25T11:02:39.182Z,2.40
2017-11-25T11:05:21.536Z,2.40
2017-11-25T11:08:02.889Z,3.27
2017-11-25T11:10:48.728Z,3.40
2017-11-25T11:13:36.704Z,3.80
2017-11-25T11:16:16.157Z,3.80
2017-11-25T11:19:00.017Z,3.43
2017-11-25T11:27:04.400Z,4.77
2017-11-25T11:29:33.960Z,4.17
2017-11-25T11:32:11.140Z,4.60
2017-11-25T11:34:51.082Z,4.10
2017-11-25T11:37:32.673Z,5.40
2017-11-25T11:40:04.174Z,4.90
2017-11-25T11:42:36.476Z,4.97
2017-11-25T11:45:17.656Z,5.27
2017-11-25T11:47:47.447Z,7.50
2017-11-25T11:50:17.225Z,7.77
2017-11-25T11:52:55.995Z,8.57
2017-11-25T11:55:35.291Z,8.80
2017-11-25T11:58:06.676Z,9.33
2017-11-25T12:00:38.305Z,10.50
2017-11-25T12:03:11.865Z,9.53
2017-11-25T12:05:52.111Z,10.70
2017-11-25T12:08:32.541Z,11.80
2017-11-25T12:11:06.453Z,11.60
2017-11-25T12:13:52.182Z,12.30
2017-11-25T12:16:31.100Z,10.27
2017-11-25T12:19:13.651Z,12.47
2017-11-25T12:21:48.380Z,11.20
2017-11-25T12:24:26.401Z,11.90
2017-11-25T12:27:05.631Z,11.70
2017-11-25T12:29:41.217Z,10.13
2017-11-25T12:32:26.099Z,10.57
2017-11-25T12:35:08.519Z,10.93
2017-11-25T12:40:35.643Z,10.23
2017-11-25T12:43:15.134Z,10.83
2017-11-25T12:46:00.690Z,11.50
2017-11-25T12:48:42.570Z,12.97
2017-11-25T12:51:25.904Z,11.40
2017-11-25T12:54:04.541Z,11.27
2017-11-25T12:56:43.846Z,11.63
2017-11-25T12:59:23.681Z,10.77
2017-11-25T13:02:06.950Z,11.00
2017-11-25T13:04:47.861Z,15.37
2017-11-25T13:07:31.186Z,13.23
2017-11-25T13:10:10.544Z,12.70
2017-11-25T13:12:51.368Z,12.57
2017-11-25T13:15:24.641Z,11.53
2017-11-25T13:18:04.562Z,11.97
2017-11-25T13:20:42.574Z,11.37
2017-11-25T13:23:13.427Z,11.33
2017-11-25T13:25:57.908Z,10.20
2017-11-25T13:28:36.994Z,10.27
2017-11-25T13:31:16.099Z,12.00
2017-11-25T13:33:57.814Z,10.37
2017-11-25T13:36:38.855Z,10.70
2017-11-25T13:39:17.304Z,9.20
2017-11-25T13:41:53.780Z,10.27
2017-11-25T13:44:32.307Z,9.40
2017-11-25T13:47:06.862Z,8.87
2017-11-25T13:49:47.449Z,9.27
2017-11-25T13:52:25.684Z,7.57
2017-11-25T13:57:55.050Z,10.87
2017-11-25T14:00:31.417Z,15.50
2017-11-25T14:03:04.460Z,6.80
2017-11-25T14:05:47.690Z,7.20
2017-11-25T14:08:26.790Z,18.33
2017-11-25T14:11:07.913Z,45.47
2017-11-25T14:13:46.662Z,6.30
2017-11-25T14:19:03.095Z,2.53
2017-11-25T14:21:44.352Z,1.75
2017-11-25T14:24:17.488Z,3.03
2017-11-25T14:26:53.478Z,2.50
2017-11-25T14:29:33.429Z,2.50
2017-11-25T14:32:17.111Z,1.75
2017-11-25T14:34:51.281Z,2.40
2017-11-25T14:37:27.920Z,2.10
2017-11-25T14:40:08.210Z,1.80
2017-11-25T14:42:43.681Z,2.20
2017-11-25T14:45:19.410Z,2.03
2017-11-25T14:47:53.302Z,2.65
2017-11-25T14:50:38.358Z,2.83
2017-11-25T14:53:13.713Z,2.62
2017-11-25T14:55:54.943Z,2.97
2017-11-25T14:58:27.433Z,2.67
2017-11-25T15:01:09.561Z,3.28
2017-11-25T15:03:53.772Z,3.35
2017-11-25T15:06:36.669Z,2.40
2017-11-25T15:09:18.668Z,2.95
2017-11-25T15:12:07.953Z,2.50
2017-11-25T15:14:49.702Z,3.17
2017-11-25T15:17:32.436Z,2.78
2017-11-25T15:20:18.329Z,3.28
2017-11-25T15:25:51.309Z,3.45
2017-11-25T15:28:35.017Z,3.30
2017-11-25T15:31:20.946Z,2.55
2017-11-25T15:33:59.747Z,3.10
2017-11-25T15:36:45.134Z,3.00
2017-11-25T15:44:58.140Z,3.20
2017-11-25T15:50:28.128Z,3.45
2017-11-25T15:53:09.925Z,4.22
2017-11-25T15:55:48.987Z,5.10
2017-11-25T15:58:31.604Z,11.23
2017-11-25T16:03:53.435Z,6.35
2017-11-25T16:06:35.254Z,5.43
2017-11-25T16:09:12.384Z,3.83
2017-11-25T16:11:49.531Z,3.42
2017-11-25T16:14:29.583Z,3.58
2017-11-25T16:17:09.396Z,2.78
2017-11-25T16:19:46.131Z,3.60
2017-11-25T16:22:26.511Z,3.42
2017-11-25T16:25:09.147Z,3.92
2017-11-25T16:27:50.693Z,3.57
2017-11-25T16:30:24.249Z,4.35
2017-11-25T16:33:08.033Z,3.72
2017-11-25T16:35:48.765Z,4.72
2017-11-25T16:38:30.795Z,2.53
2017-11-25T16:41:07.959Z,3.00
2017-11-25T16:43:45.629Z,2.90
2017-11-25T16:46:33.316Z,3.03
2017-11-25T16:49:13.413Z,3.20
2017-11-25T16:51:51.880Z,4.50
2017-11-25T16:54:35.586Z,4.25
2017-11-25T16:57:13.016Z,6.00
2017-11-25T16:59:49.413Z,6.35
2017-11-25T17:02:30.449Z,5.75
2017-11-25T17:05:09.687Z,5.43
2017-11-25T17:07:56.678Z,5.43
2017-11-25T17:10:41.199Z,5.25
2017-11-25T17:13:23.333Z,4.72
2017-11-25T17:16:02.479Z,5.18
2017-11-25T17:18:47.057Z,5.68
2017-11-25T17:21:26.657Z,7.60
2017-11-25T17:24:08.148Z,17.67
2017-11-25T17:26:54.254Z,5.95
2017-11-25T17:29:38.166Z,7.28
2017-11-25T17:32:19.633Z,7.20
2017-11-25T17:34:59.502Z,5.93
2017-11-25T17:37:37.921Z,7.62
2017-11-25T17:40:21.000Z,8.53
2017-11-25T17:43:02.505Z,6.18
2017-11-25T17:45:43.776Z,6.78
2017-11-25T17:48:29.365Z,8.25
2017-11-25T17:51:11.494Z,7.00
2017-11-25T17:53:55.402Z,7.18
2017-11-25T17:56:30.310Z,8.90
2017-11-25T17:59:13.012Z,4.93
2017-11-25T18:01:55.732Z,4.72
2017-11-25T18:04:32.100Z,7.95
2017-11-25T18:07:11.633Z,9.30
2017-11-25T18:09:51.641Z,6.50
2017-11-25T18:12:33.761Z,21.62
2017-11-25T18:15:20.260Z,12.75
2017-11-25T18:18:00.686Z,14.80
2017-11-25T18:20:41.800Z,15.85
2017-11-25T18:23:25.114Z,12.90
2017-11-25T18:26:06.794Z,10.43
2017-11-25T18:28:47.408Z,14.80
2017-11-25T18:34:16.178Z,16.65
2017-11-25T18:36:53.056Z,11.05
2017-11-25T18:39:25.271Z,7.85
2017-11-25T18:41:56.537Z,7.15
2017-11-25T18:44:24.843Z,11.18
2017-11-25T18:46:53.554Z,12.00
2017-11-25T18:49:36.653Z,8.80
2017-11-25T18:52:18.649Z,7.45
2017-11-25T18:54:47.408Z,7.35
2017-11-25T18:57:24.969Z,7.77
2017-11-25T18:59:55.870Z,7.93
2017-11-25T19:02:34.640Z,7.18
2017-11-25T19:05:03.107Z,8.20
2017-11-25T19:10:26.141Z,7.80
2017-11-25T19:13:08.045Z,7.28
2017-11-25T19:15:49.739Z,7.70
2017-11-25T19:18:18.074Z,7.82
2017-11-25T19:20:57.939Z,7.28
2017-11-25T19:23:26.415Z,7.20
2017-11-25T19:25:54.090Z,8.23
2017-11-25T19:28:22.273Z,5.93
2017-11-25T19:30:50.268Z,7.62
2017-11-25T19:33:18.579Z,9.50
2017-11-25T19:35:48.191Z,12.55
2017-11-25T19:38:16.950Z,14.20
2017-11-25T19:40:45.196Z,10.10
2017-11-25T19:43:14.473Z,14.30
2017-11-25T19:45:43.402Z,14.10
2017-11-25T19:48:11.096Z,9.75
2017-11-25T19:50:38.624Z,11.00
2017-11-25T19:53:07.189Z,11.70
2017-11-25T19:55:34.734Z,10.55
2017-11-25T19:58:04.600Z,10.38
2017-11-25T20:00:33.594Z,12.55
2017-11-25T20:03:01.838Z,13.90
2017-11-25T20:05:29.333Z,11.40
2017-11-25T20:07:59.133Z,11.30
2017-11-25T20:10:28.318Z,9.80
2017-11-25T20:12:56.166Z,11.00
2017-11-25T20:15:25.307Z,9.35
2017-11-25T20:17:53.501Z,10.70
2017-11-25T20:20:21.166Z,9.90
2017-11-25T20:22:48.909Z,10.80
2017-11-25T20:25:16.269Z,10.52
2017-11-25T20:27:43.956Z,11.05
2017-11-25T20:30:12.257Z,11.95
2017-11-25T20:32:42.261Z,9.45
2017-11-25T20:35:09.442Z,9.50
2017-11-25T20:37:38.398Z,7.93
2017-11-25T20:40:05.830Z,7.60
2017-11-25T20:42:35.102Z,8.60
2017-11-25T20:45:02.461Z,8.50
2017-11-25T20:47:32.094Z,8.73
2017-11-25T20:49:59.298Z,7.25
2017-11-25T20:52:28.280Z,7.82
2017-11-25T20:54:55.837Z,9.93
2017-11-25T20:57:24.284Z,8.35
2017-11-25T20:59:51.517Z,8.65
2017-11-25T21:02:20.988Z,7.55
2017-11-25T21:04:48.196Z,7.80
2017-11-25T21:07:15.520Z,9.68
2017-11-25T21:09:46.017Z,7.65
2017-11-25T21:12:12.995Z,7.95
2017-11-25T21:14:42.264Z,7.55
2017-11-25T21:17:10.716Z,7.70
2017-11-25T21:19:45.875Z,7.10
2017-11-25T21:22:17.236Z,9.70
2017-11-25T21:24:48.633Z,8.25
2017-11-25T21:27:23.553Z,7.85
2017-11-25T21:29:52.406Z,8.57
2017-11-25T21:32:27.508Z,7.87
2017-11-25T21:35:05.851Z,6.82
2017-11-25T21:37:36.703Z,7.60
2017-11-25T21:40:05.681Z,9.35
2017-11-25T21:47:53.326Z,8.55
2017-11-25T21:50:20.369Z,9.13
2017-11-25T21:52:56.296Z,7.53
2017-11-25T21:55:25.011Z,8.45
2017-11-25T22:00:31.141Z,8.35
2017-11-25T22:03:05.909Z,8.55
2017-11-25T22:05:33.018Z,8.68
2017-11-25T22:08:01.806Z,8.35
2017-11-25T22:10:31.115Z,8.45
2017-11-25T22:12:59.553Z,8.73
2017-11-25T22:15:26.634Z,9.07
2017-11-25T22:17:59.822Z,8.48
2017-11-25T22:20:27.211Z,8.70
2017-11-25T22:22:54.486Z,9.32
2017-11-25T22:25:24.994Z,7.87
2017-11-25T22:27:53.742Z,8.45
2017-11-25T22:30:21.768Z,8.98
2017-11-25T22:32:50.333Z,14.68
2017-11-25T22:35:21.853Z,9.35
2017-11-25T22:37:52.062Z,7.80
2017-11-25T22:40:26.767Z,7.15
2017-11-25T22:43:05.051Z,7.15
2017-11-25T22:45:33.929Z,5.90
2017-11-25T22:48:06.458Z,6.90
2017-11-25T22:50:35.616Z,7.50
2017-11-25T22:53:10.545Z,6.80
2017-11-25T22:55:50.358Z,6.80
2017-11-25T22:58:27.149Z,6.15
2017-11-25T23:01:04.807Z,7.55
2017-11-25T23:03:37.498Z,7.97
2017-11-25T23:06:15.500Z,7.12
2017-11-25T23:08:54.622Z,7.78
2017-11-25T23:11:34.387Z,7.30
2017-11-25T23:14:13.375Z,8.00
2017-11-25T23:16:54.455Z,8.10
2017-11-25T23:19:23.408Z,7.87
2017-11-25T23:21:50.447Z,7.20
2017-11-25T23:24:20.063Z,9.13
2017-11-25T23:26:52.688Z,8.10
2017-11-25T23:29:26.479Z,7.47
2017-11-25T23:32:03.911Z,7.57
2017-11-25T23:34:38.770Z,7.82
2017-11-25T23:37:15.877Z,7.30
2017-11-25T23:39:50.131Z,8.10
2017-11-25T23:42:25.238Z,6.90
2017-11-25T23:45:01.036Z,7.43
2017-11-25T23:47:36.846Z,8.27
2017-11-25T23:50:05.453Z,7.50
2017-11-25T23:52:37.253Z,7.15
2017-11-25T23:55:04.142Z,6.75
2017-11-25T23:57:38.493Z,7.10
